createdAt,value
2018-07-06T00:00:05.373Z,0.00
2018-07-06T00:01:05.378Z,0.00
2018-07-06T00:02:05.345Z,0.00
2018-07-06T00:03:05.338Z,0.00
2018-07-06T00:04:05.323Z,0.00
2018-07-06T00:05:05.313Z,0.00
2018-07-06T00:06:05.337Z,0.00
2018-07-06T00:07:05.296Z,0.00
2018-07-06T00:08:05.285Z,0.00
2018-07-06T00:09:05.272Z,0.00
2018-07-06T00:10:05.259Z,0.00
2018-07-06T00:11:05.342Z,0.00
2018-07-06T00:12:05.239Z,0.00
2018-07-06T00:13:05.228Z,0.00
2018-07-06T00:14:05.219Z,0.00
2018-07-06T00:15:05.210Z,0.00
2018-07-06T00:16:05.193Z,0.00
2018-07-06T00:17:05.187Z,0.00
2018-07-06T00:18:05.182Z,0.00
2018-07-06T00:19:05.167Z,0.00
2018-07-06T00:20:05.180Z,0.00
2018-07-06T00:21:05.146Z,0.00
2018-07-06T00:22:05.148Z,0.00
2018-07-06T00:23:05.122Z,0.00
2018-07-06T00:24:05.109Z,0.00
2018-07-06T00:25:05.098Z,0.00
2018-07-06T00:26:05.090Z,0.00
2018-07-06T00:27:05.108Z,0.00
2018-07-06T00:28:05.070Z,0.00
2018-07-06T00:29:05.057Z,0.00
2018-07-06T00:30:05.044Z,0.00
2018-07-06T00:31:05.031Z,0.00
2018-07-06T00:32:05.027Z,0.00
2018-07-06T00:33:05.017Z,0.00
2018-07-06T00:34:05.002Z,0.00
2018-07-06T00:35:04.988Z,0.00
2018-07-06T00:36:04.978Z,0.00
2018-07-06T00:37:04.996Z,0.00
2018-07-06T00:38:04.972Z,0.00
2018-07-06T00:39:04.957Z,0.00
2018-07-06T00:40:04.944Z,0.00
2018-07-06T00:41:04.928Z,0.00
2018-07-06T00:42:04.917Z,0.00
2018-07-06T00:43:04.908Z,0.00
2018-07-06T00:44:04.890Z,0.00
2018-07-06T00:45:04.888Z,0.00
2018-07-06T00:46:04.879Z,0.00
2018-07-06T00:47:04.866Z,0.00
2018-07-06T00:48:04.851Z,0.00
2018-07-06T00:49:04.840Z,0.00
2018-07-06T00:50:04.833Z,0.00
2018-07-06T00:51:04.825Z,0.00
2018-07-06T00:52:04.812Z,0.00
2018-07-06T00:53:04.838Z,0.00
2018-07-06T00:54:04.786Z,0.00
2018-07-06T00:55:04.776Z,0.00
2018-07-06T00:56:04.778Z,0.00
2018-07-06T00:57:04.754Z,0.00
2018-07-06T00:58:04.759Z,0.00
2018-07-06T00:59:04.741Z,0.00
2018-07-06T01:00:04.724Z,0.00
2018-07-06T01:01:04.719Z,0.00
2018-07-06T01:02:04.701Z,0.00
2018-07-06T01:03:04.701Z,0.00
2018-07-06T01:04:04.689Z,0.00
2018-07-06T01:05:04.669Z,0.00
2018-07-06T01:06:04.656Z,0.00
2018-07-06T01:07:04.650Z,0.00
2018-07-06T01:08:04.632Z,0.00
2018-07-06T01:09:04.625Z,0.00
2018-07-06T01:10:04.619Z,0.00
2018-07-06T01:11:04.607Z,0.00
2018-07-06T01:12:04.616Z,0.00
2018-07-06T01:13:04.581Z,0.00
2018-07-06T01:14:04.571Z,0.00
2018-07-06T01:15:04.555Z,0.00
2018-07-06T01:16:04.545Z,0.00
2018-07-06T01:17:04.539Z,0.00
2018-07-06T01:18:04.528Z,0.00
2018-07-06T01:19:04.522Z,0.00
2018-07-06T01:20:04.502Z,0.00
2018-07-06T01:21:04.493Z,0.00
2018-07-06T01:22:04.485Z,0.00
2018-07-06T01:23:04.478Z,0.00
2018-07-06T01:24:04.465Z,0.00
2018-07-06T01:25:04.459Z,0.00
2018-07-06T01:26:04.437Z,0.00
2018-07-06T01:27:04.429Z,0.00
2018-07-06T01:28:04.435Z,0.00
2018-07-06T01:29:04.428Z,0.00
2018-07-06T01:30:04.403Z,0.00
2018-07-06T01:31:04.388Z,0.00
2018-07-06T01:32:04.377Z,0.00
2018-07-06T01:33:04.369Z,0.00
2018-07-06T01:34:04.386Z,0.00
2018-07-06T01:35:04.341Z,0.00
2018-07-06T01:36:04.331Z,0.00
2018-07-06T01:37:04.323Z,0.00
2018-07-06T01:38:04.305Z,0.00
2018-07-06T01:39:04.299Z,0.00
2018-07-06T01:40:04.288Z,0.00
2018-07-06T01:41:04.273Z,0.00
2018-07-06T01:42:04.269Z,0.00
2018-07-06T01:43:04.254Z,0.00
2018-07-06T01:44:04.273Z,0.00
2018-07-06T01:45:04.236Z,0.00
2018-07-06T01:46:04.218Z,0.00
2018-07-06T01:47:04.210Z,0.00
2018-07-06T01:48:04.199Z,0.00
2018-07-06T01:49:04.193Z,0.00
2018-07-06T01:50:04.191Z,0.00
2018-07-06T01:51:04.168Z,0.00
2018-07-06T01:52:04.162Z,0.00
2018-07-06T01:53:04.141Z,0.00
2018-07-06T01:54:04.138Z,0.00
2018-07-06T01:55:04.126Z,0.00
2018-07-06T01:56:04.114Z,0.00
2018-07-06T01:57:04.105Z,0.00
2018-07-06T01:58:04.094Z,0.00
2018-07-06T01:59:04.079Z,0.00
2018-07-06T02:00:04.103Z,0.00
2018-07-06T02:01:04.054Z,0.00
2018-07-06T02:02:04.061Z,0.00
2018-07-06T02:03:04.039Z,0.00
2018-07-06T02:04:04.027Z,0.00
2018-07-06T02:05:04.058Z,0.00
2018-07-06T02:06:04.004Z,0.00
2018-07-06T02:07:03.992Z,0.00
2018-07-06T02:08:03.983Z,0.00
2018-07-06T02:09:03.977Z,0.00
2018-07-06T02:10:03.959Z,0.00
2018-07-06T02:11:03.951Z,0.00
2018-07-06T02:12:03.937Z,0.00
2018-07-06T02:13:03.926Z,0.00
2018-07-06T02:14:03.919Z,0.00
2018-07-06T02:15:03.912Z,0.00
2018-07-06T02:16:03.899Z,0.00
2018-07-06T02:17:03.895Z,0.00
2018-07-06T02:18:03.895Z,0.00
2018-07-06T02:19:03.860Z,0.00
2018-07-06T02:20:03.850Z,0.00
2018-07-06T02:21:03.856Z,0.00
2018-07-06T02:22:03.833Z,0.00
2018-07-06T02:23:03.821Z,0.00
2018-07-06T02:24:03.807Z,0.00
2018-07-06T02:25:03.794Z,0.00
2018-07-06T02:26:03.829Z,0.00
2018-07-06T02:27:03.776Z,0.00
2018-07-06T02:28:03.766Z,0.00
2018-07-06T02:29:03.759Z,0.00
2018-07-06T02:30:03.740Z,0.00
2018-07-06T02:31:03.736Z,0.00
2018-07-06T02:32:03.724Z,0.00
2018-07-06T02:33:03.710Z,0.00
2018-07-06T02:34:03.702Z,0.00
2018-07-06T02:35:03.690Z,0.00
2018-07-06T02:36:03.678Z,0.00
2018-07-06T02:37:03.684Z,4.00
2018-07-06T02:38:03.652Z,4.00
2018-07-06T02:39:03.643Z,4.00
2018-07-06T02:40:03.636Z,0.00
2018-07-06T02:41:03.627Z,4.00
2018-07-06T02:42:03.610Z,4.00
2018-07-06T02:43:03.600Z,4.00
2018-07-06T02:44:03.590Z,4.00
2018-07-06T02:45:03.620Z,8.00
2018-07-06T02:46:03.571Z,4.00
2018-07-06T02:47:03.579Z,8.00
2018-07-06T02:48:03.546Z,8.00
2018-07-06T02:49:03.571Z,8.00
2018-07-06T02:50:03.526Z,8.00
2018-07-06T02:51:03.520Z,12.00
2018-07-06T02:52:03.510Z,12.00
2018-07-06T02:53:03.494Z,12.00
2018-07-06T02:54:03.481Z,16.00
2018-07-06T02:55:03.471Z,16.00
2018-07-06T02:56:03.465Z,20.00
2018-07-06T02:57:03.484Z,24.00
2018-07-06T02:58:03.437Z,24.00
2018-07-06T02:59:03.427Z,28.00
2018-07-06T03:00:03.413Z,32.00
2018-07-06T03:01:03.404Z,36.00
2018-07-06T03:02:03.444Z,40.00
2018-07-06T03:03:03.436Z,44.00
2018-07-06T03:04:03.383Z,48.00
2018-07-06T03:05:03.377Z,56.00
2018-07-06T03:06:03.365Z,64.00
2018-07-06T03:07:03.339Z,72.00
2018-07-06T03:08:03.326Z,76.00
2018-07-06T03:09:03.317Z,88.00
2018-07-06T03:10:03.309Z,96.00
2018-07-06T03:11:03.299Z,104.00
2018-07-06T03:12:03.302Z,116.00
2018-07-06T03:13:03.274Z,128.00
2018-07-06T03:14:03.268Z,140.00
2018-07-06T03:15:03.274Z,152.00
2018-07-06T03:16:03.249Z,164.00
2018-07-06T03:17:03.270Z,176.00
2018-07-06T03:18:03.242Z,192.00
2018-07-06T03:19:03.211Z,208.00
2018-07-06T03:20:03.200Z,224.00
2018-07-06T03:21:03.187Z,244.00
2018-07-06T03:22:03.181Z,260.00
2018-07-06T03:23:03.172Z,276.00
2018-07-06T03:24:03.174Z,296.00
2018-07-06T03:25:03.146Z,320.00
2018-07-06T03:26:03.133Z,340.00
2018-07-06T03:27:03.126Z,364.00
2018-07-06T03:28:03.137Z,384.00
2018-07-06T03:29:03.105Z,408.00
2018-07-06T03:30:03.091Z,432.00
2018-07-06T03:31:03.076Z,460.00
2018-07-06T03:32:03.065Z,480.00
2018-07-06T03:33:03.059Z,512.00
2018-07-06T03:34:03.048Z,536.00
2018-07-06T03:35:03.040Z,560.00
2018-07-06T03:36:03.057Z,592.00
2018-07-06T03:37:03.023Z,616.00
2018-07-06T03:38:03.030Z,644.00
2018-07-06T03:39:02.991Z,668.00
2018-07-06T03:40:02.977Z,696.00
2018-07-06T03:41:02.976Z,728.00
2018-07-06T03:42:02.984Z,768.00
2018-07-06T03:43:02.951Z,804.00
2018-07-06T03:44:02.935Z,836.00
2018-07-06T03:45:02.926Z,872.00
2018-07-06T03:46:02.916Z,904.00
2018-07-06T03:47:02.907Z,932.00
2018-07-06T03:48:02.934Z,956.00
2018-07-06T03:49:02.887Z,988.00
2018-07-06T03:50:02.872Z,1024.00
2018-07-06T03:51:02.875Z,1064.00
2018-07-06T03:52:02.851Z,1136.00
2018-07-06T03:53:02.841Z,1208.00
2018-07-06T03:54:02.855Z,1272.00
2018-07-06T03:55:02.896Z,1304.00
2018-07-06T03:56:02.812Z,1356.00
2018-07-06T03:57:02.796Z,1408.00
2018-07-06T03:58:02.783Z,1460.00
2018-07-06T03:59:02.788Z,1484.00
2018-07-06T04:00:02.823Z,1512.00
2018-07-06T04:01:02.762Z,1540.00
2018-07-06T04:02:02.740Z,1604.00
2018-07-06T04:03:02.726Z,1664.00
2018-07-06T04:04:02.715Z,1664.00
2018-07-06T04:05:02.735Z,1724.00
2018-07-06T04:06:02.705Z,1752.00
2018-07-06T04:07:02.709Z,1788.00
2018-07-06T04:08:02.679Z,1836.00
2018-07-06T04:09:02.665Z,1820.00
2018-07-06T04:10:02.675Z,1872.00
2018-07-06T04:11:02.646Z,1816.00
2018-07-06T04:12:02.643Z,1752.00
2018-07-06T04:13:02.639Z,1716.00
2018-07-06T04:14:02.625Z,1704.00
2018-07-06T04:15:02.631Z,1860.00
2018-07-06T04:16:02.635Z,1832.00
2018-07-06T04:17:02.578Z,1900.00
2018-07-06T04:18:02.568Z,2064.00
2018-07-06T04:19:02.560Z,1928.00
2018-07-06T04:20:02.550Z,1836.00
2018-07-06T04:21:02.584Z,1776.00
2018-07-06T04:22:02.524Z,1828.00
2018-07-06T04:23:02.512Z,1884.00
2018-07-06T04:24:02.500Z,1828.00
2018-07-06T04:25:02.490Z,1784.00
2018-07-06T04:26:02.484Z,1680.00
2018-07-06T04:27:02.473Z,1804.00
2018-07-06T04:28:02.462Z,1908.00
2018-07-06T04:29:02.449Z,2004.00
2018-07-06T04:30:02.437Z,2208.00
2018-07-06T04:31:02.424Z,2280.00
2018-07-06T04:32:02.422Z,2276.00
2018-07-06T04:33:02.411Z,2332.00
2018-07-06T04:34:02.402Z,2608.00
2018-07-06T04:35:02.380Z,2720.00
2018-07-06T04:36:02.371Z,2780.00
2018-07-06T04:37:02.361Z,2688.00
2018-07-06T04:38:02.352Z,2472.00
2018-07-06T04:39:02.343Z,2436.00
2018-07-06T04:40:02.333Z,2344.00
2018-07-06T04:41:02.343Z,2276.00
2018-07-06T04:42:02.306Z,2208.00
2018-07-06T04:43:02.323Z,2148.00
2018-07-06T04:44:02.282Z,2224.00
2018-07-06T04:45:02.274Z,2400.00
2018-07-06T04:46:02.291Z,2504.00
2018-07-06T04:47:02.263Z,2596.00
2018-07-06T04:48:02.239Z,2692.00
2018-07-06T04:49:02.232Z,2788.00
2018-07-06T04:50:02.223Z,2800.00
2018-07-06T04:51:02.256Z,2728.00
2018-07-06T04:52:02.207Z,2584.00
2018-07-06T04:53:02.203Z,2524.00
2018-07-06T04:54:02.183Z,2544.00
2018-07-06T04:55:02.183Z,2444.00
2018-07-06T04:56:02.172Z,2460.00
2018-07-06T04:57:02.147Z,2560.00
2018-07-06T04:58:02.158Z,2560.00
2018-07-06T04:59:02.135Z,2540.00
2018-07-06T05:00:02.137Z,2572.00
2018-07-06T05:01:02.123Z,2504.00
2018-07-06T05:02:02.101Z,2404.00
2018-07-06T05:03:02.083Z,2436.00
2018-07-06T05:04:02.076Z,2572.00
2018-07-06T05:05:02.064Z,2640.00
2018-07-06T05:06:02.086Z,2556.00
2018-07-06T05:07:02.034Z,2468.00
2018-07-06T05:08:02.035Z,2568.00
2018-07-06T05:09:02.017Z,2588.00
2018-07-06T05:10:02.007Z,2512.00
2018-07-06T05:11:01.998Z,2484.00
2018-07-06T05:12:01.989Z,2476.00
2018-07-06T05:13:01.973Z,2564.00
2018-07-06T05:14:01.962Z,2564.00
2018-07-06T05:15:01.948Z,2468.00
2018-07-06T05:16:01.944Z,2492.00
2018-07-06T05:17:02.022Z,2596.00
2018-07-06T05:18:01.930Z,2672.00
2018-07-06T05:19:01.932Z,2756.00
2018-07-06T05:20:01.894Z,2752.00
2018-07-06T05:21:01.895Z,2776.00
2018-07-06T05:22:01.906Z,2908.00
2018-07-06T05:23:01.868Z,3072.00
2018-07-06T05:24:01.859Z,3008.00
2018-07-06T05:25:01.855Z,2928.00
2018-07-06T05:26:01.831Z,2912.00
2018-07-06T05:27:01.818Z,2900.00
2018-07-06T05:28:01.809Z,2972.00
2018-07-06T05:29:01.800Z,3196.00
2018-07-06T05:30:01.790Z,3216.00
2018-07-06T05:31:01.785Z,3100.00
2018-07-06T05:32:01.809Z,2984.00
2018-07-06T05:33:01.760Z,3024.00
2018-07-06T05:34:01.761Z,3008.00
2018-07-06T05:35:01.759Z,2976.00
2018-07-06T05:36:01.728Z,3012.00
2018-07-06T05:37:01.715Z,3012.00
2018-07-06T05:38:01.730Z,2892.00
2018-07-06T05:39:01.688Z,2900.00
2018-07-06T05:40:01.677Z,3004.00
2018-07-06T05:41:01.671Z,3192.00
2018-07-06T05:42:01.677Z,3208.00
2018-07-06T05:43:01.687Z,3340.00
2018-07-06T05:44:01.649Z,3420.00
2018-07-06T05:45:01.629Z,3324.00
2018-07-06T05:46:01.635Z,3268.00
2018-07-06T05:47:01.603Z,3284.00
2018-07-06T05:48:01.669Z,3180.00
2018-07-06T05:49:01.587Z,3136.00
2018-07-06T05:50:01.577Z,3260.00
2018-07-06T05:51:01.566Z,3392.00
2018-07-06T05:52:01.548Z,3456.00
2018-07-06T05:53:01.541Z,3392.00
2018-07-06T05:54:01.563Z,2900.00
2018-07-06T05:55:01.526Z,2264.00
2018-07-06T05:56:01.513Z,2384.00
2018-07-06T05:57:01.500Z,2780.00
2018-07-06T05:58:01.490Z,3328.00
2018-07-06T05:59:01.474Z,3800.00
2018-07-06T06:00:01.466Z,3564.00
2018-07-06T06:01:01.457Z,2908.00
2018-07-06T06:02:01.447Z,2848.00
2018-07-06T06:03:01.517Z,3324.00
2018-07-06T06:04:01.429Z,3804.00
2018-07-06T06:05:01.418Z,3916.00
2018-07-06T06:06:01.421Z,4084.00
2018-07-06T06:07:01.390Z,4156.00
2018-07-06T06:08:01.386Z,3280.00
2018-07-06T06:09:01.375Z,3176.00
2018-07-06T06:10:01.388Z,3220.00
2018-07-06T06:11:01.347Z,2804.00
2018-07-06T06:12:01.341Z,3140.00
2018-07-06T06:13:01.333Z,4320.00
2018-07-06T06:14:01.325Z,4704.00
2018-07-06T06:15:01.315Z,4004.00
2018-07-06T06:16:01.309Z,3444.00
2018-07-06T06:17:01.287Z,3420.00
2018-07-06T06:18:01.281Z,2780.00
2018-07-06T06:19:01.265Z,2812.00
2018-07-06T06:20:01.253Z,2996.00
2018-07-06T06:21:01.252Z,3908.00
2018-07-06T06:22:01.236Z,6076.00
2018-07-06T06:23:01.224Z,7432.00
2018-07-06T06:24:01.211Z,7092.00
2018-07-06T06:25:01.198Z,6388.00
2018-07-06T06:26:01.222Z,6088.00
2018-07-06T06:27:01.180Z,6132.00
2018-07-06T06:28:01.175Z,6268.00
2018-07-06T06:29:01.156Z,5876.00
2018-07-06T06:30:01.149Z,5240.00
2018-07-06T06:31:01.135Z,5144.00
2018-07-06T06:32:01.146Z,5304.00
2018-07-06T06:33:01.152Z,5240.00
2018-07-06T06:34:01.289Z,5068.00
2018-07-06T06:35:01.115Z,5132.00
2018-07-06T06:36:01.085Z,5216.00
2018-07-06T06:37:01.071Z,5664.00
2018-07-06T06:38:01.056Z,6068.00
2018-07-06T06:39:01.041Z,5956.00
2018-07-06T06:40:01.040Z,6048.00
2018-07-06T06:41:01.036Z,6032.00
2018-07-06T06:42:01.034Z,5840.00
2018-07-06T06:43:00.997Z,5468.00
2018-07-06T06:44:00.987Z,5640.00
2018-07-06T06:45:00.985Z,6184.00
2018-07-06T06:46:00.979Z,6756.00
2018-07-06T06:47:00.990Z,6700.00
2018-07-06T06:48:00.950Z,6308.00
2018-07-06T06:49:00.955Z,6160.00
2018-07-06T06:50:00.924Z,6272.00
2018-07-06T06:51:00.911Z,6612.00
2018-07-06T06:52:00.901Z,6224.00
2018-07-06T06:53:00.897Z,5960.00
2018-07-06T06:54:00.883Z,5704.00
2018-07-06T06:55:00.874Z,5600.00
2018-07-06T06:56:00.856Z,5632.00
2018-07-06T06:57:00.849Z,5852.00
2018-07-06T06:58:00.842Z,6648.00
2018-07-06T06:59:00.880Z,6960.00
2018-07-06T07:00:00.819Z,7436.00
2018-07-06T07:01:00.809Z,8756.00
2018-07-06T07:02:00.794Z,8624.00
2018-07-06T07:03:00.807Z,8452.00
2018-07-06T07:04:00.769Z,8172.00
2018-07-06T07:05:00.762Z,7792.00
2018-07-06T07:06:00.753Z,7648.00
2018-07-06T07:07:00.739Z,7052.00
2018-07-06T07:08:00.729Z,7204.00
2018-07-06T07:09:00.766Z,7532.00
2018-07-06T07:10:00.707Z,7600.00
2018-07-06T07:11:00.694Z,7488.00
2018-07-06T07:12:00.686Z,7416.00
2018-07-06T07:13:00.681Z,7548.00
2018-07-06T07:14:00.774Z,7260.00
2018-07-06T07:15:00.657Z,6620.00
2018-07-06T07:16:00.637Z,7152.00
2018-07-06T07:17:00.644Z,8144.00
2018-07-06T07:18:00.641Z,7340.00
2018-07-06T07:19:00.611Z,7508.00
2018-07-06T07:20:00.598Z,7600.00
2018-07-06T07:21:00.594Z,6500.00
2018-07-06T07:22:00.575Z,6584.00
2018-07-06T07:23:00.563Z,8020.00
2018-07-06T07:24:00.554Z,10412.00
2018-07-06T07:25:00.541Z,11688.00
2018-07-06T07:26:00.536Z,11396.00
2018-07-06T07:27:00.525Z,11488.00
2018-07-06T07:28:00.512Z,11384.00
2018-07-06T07:29:00.498Z,10976.00
2018-07-06T07:30:00.510Z,11480.00
2018-07-06T07:31:00.479Z,11576.00
2018-07-06T07:32:00.477Z,12292.00
2018-07-06T07:33:00.461Z,12604.00
2018-07-06T07:34:00.470Z,12476.00
2018-07-06T07:35:00.434Z,12460.00
2018-07-06T07:36:00.423Z,11120.00
2018-07-06T07:37:00.411Z,10148.00
2018-07-06T07:38:00.407Z,10284.00
2018-07-06T07:39:00.419Z,11044.00
2018-07-06T07:40:00.385Z,11764.00
2018-07-06T07:41:00.375Z,13156.00
2018-07-06T07:42:00.358Z,14136.00
2018-07-06T07:43:00.351Z,13208.00
2018-07-06T07:44:00.341Z,12380.00
2018-07-06T07:45:00.378Z,12968.00
2018-07-06T07:46:00.327Z,13416.00
2018-07-06T07:47:00.313Z,14200.00
2018-07-06T07:48:00.295Z,14992.00
2018-07-06T07:49:00.282Z,14048.00
2018-07-06T07:50:00.279Z,14448.00
2018-07-06T07:51:00.299Z,13660.00
2018-07-06T07:52:00.274Z,13184.00
2018-07-06T07:53:00.246Z,13412.00
2018-07-06T07:54:00.235Z,12532.00
2018-07-06T07:55:00.282Z,12024.00
2018-07-06T07:56:00.221Z,11864.00
2018-07-06T07:57:00.196Z,11080.00
2018-07-06T07:58:00.192Z,9768.00
2018-07-06T07:59:00.178Z,9648.00
2018-07-06T08:00:00.166Z,11064.00
2018-07-06T08:01:00.345Z,11084.00
2018-07-06T08:02:00.160Z,12444.00
2018-07-06T08:03:00.136Z,12160.00
2018-07-06T08:04:00.126Z,10920.00
2018-07-06T08:05:00.127Z,11872.00
2018-07-06T08:06:00.128Z,12828.00
2018-07-06T08:07:00.090Z,12420.00
2018-07-06T08:08:00.080Z,11212.00
2018-07-06T08:09:00.067Z,10772.00
2018-07-06T08:10:00.064Z,11528.00
2018-07-06T08:11:00.050Z,11812.00
2018-07-06T08:12:00.042Z,11692.00
2018-07-06T08:13:00.039Z,11372.00
2018-07-06T08:14:04.909Z,10992.00
2018-07-06T08:15:00.016Z,10588.00
2018-07-06T08:15:59.995Z,10120.00
2018-07-06T08:17:00.017Z,9988.00
2018-07-06T08:17:59.969Z,10040.00
2018-07-06T08:18:59.961Z,10144.00
2018-07-06T08:19:59.949Z,10672.00
2018-07-06T08:20:59.940Z,11412.00
2018-07-06T08:21:59.932Z,11464.00
2018-07-06T08:22:59.922Z,11136.00
2018-07-06T08:23:59.908Z,11216.00
2018-07-06T08:24:59.901Z,11660.00
2018-07-06T08:25:59.882Z,12296.00
2018-07-06T08:26:59.875Z,12480.00
2018-07-06T08:27:59.869Z,12480.00
2018-07-06T08:28:59.854Z,13112.00
2018-07-06T08:29:59.849Z,13720.00
2018-07-06T08:30:59.833Z,13704.00
2018-07-06T08:31:59.822Z,13332.00
2018-07-06T08:32:59.808Z,13604.00
2018-07-06T08:33:59.803Z,13696.00
2018-07-06T08:34:59.807Z,12548.00
2018-07-06T08:35:59.781Z,12252.00
2018-07-06T08:36:59.771Z,12728.00
2018-07-06T08:37:59.775Z,13872.00
2018-07-06T08:38:59.746Z,14756.00
2018-07-06T08:39:59.751Z,15348.00
2018-07-06T08:40:59.745Z,16480.00
2018-07-06T08:41:59.727Z,17152.00
2018-07-06T08:42:59.731Z,16544.00
2018-07-06T08:43:59.695Z,15876.00
2018-07-06T08:44:59.776Z,16480.00
2018-07-06T08:45:59.667Z,18272.00
2018-07-06T08:46:59.659Z,20224.00
2018-07-06T08:47:59.651Z,22272.00
2018-07-06T08:48:59.648Z,21504.00
2018-07-06T08:49:59.627Z,20448.00
2018-07-06T08:50:59.623Z,22080.00
2018-07-06T08:51:59.637Z,24576.00
2018-07-06T08:52:59.593Z,25824.00
2018-07-06T08:53:59.594Z,25120.00
2018-07-06T08:54:59.583Z,24544.00
2018-07-06T08:55:59.587Z,23712.00
2018-07-06T08:56:59.556Z,18464.00
2018-07-06T08:57:59.537Z,17472.00
2018-07-06T08:58:59.569Z,20448.00
2018-07-06T08:59:59.524Z,24896.00
2018-07-06T09:00:59.543Z,27776.00
2018-07-06T09:01:59.503Z,27424.00
2018-07-06T09:02:59.489Z,24448.00
2018-07-06T09:03:59.513Z,21184.00
2018-07-06T09:04:59.464Z,19168.00
2018-07-06T09:05:59.461Z,17888.00
2018-07-06T09:06:59.447Z,18752.00
2018-07-06T09:07:59.445Z,18816.00
2018-07-06T09:08:59.474Z,19136.00
2018-07-06T09:09:59.441Z,19552.00
2018-07-06T09:10:59.404Z,19712.00
2018-07-06T09:11:59.396Z,19424.00
2018-07-06T09:12:59.394Z,22336.00
2018-07-06T09:13:59.378Z,26048.00
2018-07-06T09:14:59.392Z,56032.00
2018-07-06T09:15:59.369Z,93664.00
2018-07-06T09:16:59.344Z,93600.00
2018-07-06T09:17:59.331Z,43936.00
2018-07-06T09:18:59.319Z,23200.00
2018-07-06T09:19:59.601Z,20160.00
2018-07-06T09:20:59.307Z,19328.00
2018-07-06T09:21:59.287Z,20000.00
2018-07-06T09:22:59.276Z,21664.00
2018-07-06T09:23:59.268Z,24064.00
2018-07-06T09:24:59.256Z,25024.00
2018-07-06T09:25:59.543Z,24448.00
2018-07-06T09:26:59.238Z,22912.00
2018-07-06T09:27:59.227Z,20416.00
2018-07-06T09:28:59.220Z,19680.00
2018-07-06T09:29:59.219Z,19936.00
2018-07-06T09:30:59.193Z,19904.00
2018-07-06T09:31:59.184Z,23776.00
2018-07-06T09:32:59.170Z,37344.00
2018-07-06T09:33:59.169Z,94176.00
2018-07-06T09:34:59.195Z,76992.00
2018-07-06T09:35:59.152Z,81472.00
2018-07-06T09:36:59.129Z,86432.00
2018-07-06T09:37:59.130Z,60608.00
2018-07-06T09:38:59.130Z,51328.00
2018-07-06T09:39:59.127Z,47808.00
2018-07-06T09:40:59.135Z,34432.00
2018-07-06T09:41:59.096Z,21472.00
2018-07-06T09:42:59.073Z,17252.00
2018-07-06T09:43:59.064Z,15028.00
2018-07-06T09:44:59.048Z,15224.00
2018-07-06T09:45:59.063Z,14712.00
2018-07-06T09:46:59.034Z,15348.00
2018-07-06T09:47:59.026Z,16648.00
2018-07-06T09:48:59.015Z,18336.00
2018-07-06T09:49:58.997Z,18144.00
2018-07-06T09:50:59.043Z,18912.00
2018-07-06T09:51:58.987Z,21088.00
2018-07-06T09:52:58.972Z,20096.00
2018-07-06T09:53:58.955Z,17888.00
2018-07-06T09:54:58.948Z,19104.00
2018-07-06T09:55:58.974Z,19424.00
2018-07-06T09:56:58.926Z,19968.00
2018-07-06T09:57:58.925Z,17476.00
2018-07-06T09:58:58.909Z,14252.00
2018-07-06T09:59:58.898Z,14656.00
2018-07-06T10:00:58.910Z,16148.00
2018-07-06T10:01:58.921Z,18056.00
2018-07-06T10:02:58.897Z,16100.00
2018-07-06T10:03:58.859Z,14680.00
2018-07-06T10:04:58.844Z,15016.00
2018-07-06T10:05:58.869Z,15500.00
2018-07-06T10:06:58.824Z,14808.00
2018-07-06T10:07:58.820Z,14748.00
2018-07-06T10:08:58.817Z,15516.00
2018-07-06T10:09:58.800Z,17124.00
2018-07-06T10:10:58.796Z,20576.00
2018-07-06T10:11:58.778Z,25856.00
2018-07-06T10:12:58.763Z,29952.00
2018-07-06T10:13:58.752Z,22496.00
2018-07-06T10:14:58.738Z,22368.00
2018-07-06T10:15:58.800Z,25632.00
2018-07-06T10:16:58.716Z,31136.00
2018-07-06T10:17:58.713Z,24864.00
2018-07-06T10:18:58.699Z,19264.00
2018-07-06T10:19:58.697Z,16300.00
2018-07-06T10:20:58.682Z,18752.00
2018-07-06T10:21:58.753Z,21728.00
2018-07-06T10:22:58.655Z,21632.00
2018-07-06T10:23:58.644Z,19808.00
2018-07-06T10:24:58.636Z,19104.00
2018-07-06T10:25:58.620Z,21184.00
2018-07-06T10:26:58.622Z,22688.00
2018-07-06T10:27:58.625Z,21824.00
2018-07-06T10:28:58.587Z,20928.00
2018-07-06T10:29:58.584Z,21408.00
2018-07-06T10:30:58.585Z,22112.00
2018-07-06T10:31:58.575Z,43040.00
2018-07-06T10:32:58.590Z,23840.00
2018-07-06T10:33:58.581Z,35840.00
2018-07-06T10:34:58.531Z,82432.00
2018-07-06T10:35:58.526Z,92928.00
2018-07-06T10:36:58.521Z,89504.00
2018-07-06T10:37:58.503Z,89728.00
2018-07-06T10:38:58.486Z,89728.00
2018-07-06T10:39:58.509Z,88640.00
2018-07-06T10:40:58.462Z,86240.00
2018-07-06T10:41:58.491Z,84832.00
2018-07-06T10:42:58.452Z,65600.00
2018-07-06T10:43:58.438Z,57696.00
2018-07-06T10:44:58.441Z,38560.00
2018-07-06T10:45:58.425Z,33376.00
2018-07-06T10:46:58.410Z,29760.00
2018-07-06T10:47:58.409Z,22688.00
2018-07-06T10:48:58.391Z,19808.00
2018-07-06T10:49:58.382Z,22720.00
2018-07-06T10:50:58.368Z,23968.00
2018-07-06T10:51:58.360Z,21344.00
2018-07-06T10:52:58.355Z,21568.00
2018-07-06T10:53:58.333Z,23904.00
2018-07-06T10:54:58.329Z,27936.00
2018-07-06T10:55:58.320Z,29504.00
2018-07-06T10:56:58.309Z,30976.00
2018-07-06T10:57:58.297Z,27744.00
2018-07-06T10:58:58.292Z,26464.00
2018-07-06T10:59:58.279Z,24000.00
2018-07-06T11:00:58.268Z,26272.00
2018-07-06T11:01:58.260Z,25440.00
2018-07-06T11:02:58.279Z,21888.00
2018-07-06T11:03:58.236Z,19840.00
2018-07-06T11:04:58.250Z,19136.00
2018-07-06T11:05:58.211Z,19328.00
2018-07-06T11:06:58.202Z,20032.00
2018-07-06T11:07:58.195Z,23200.00
2018-07-06T11:08:58.229Z,27744.00
2018-07-06T11:09:58.176Z,26176.00
2018-07-06T11:10:58.163Z,25760.00
2018-07-06T11:11:58.150Z,17132.00
2018-07-06T11:12:58.138Z,18624.00
2018-07-06T11:13:58.138Z,32544.00
2018-07-06T11:14:58.121Z,32288.00
2018-07-06T11:15:58.112Z,45696.00
2018-07-06T11:16:58.105Z,30368.00
2018-07-06T11:17:58.109Z,48672.00
2018-07-06T11:18:58.087Z,31392.00
2018-07-06T11:19:58.071Z,97280.00
2018-07-06T11:20:58.064Z,85856.00
2018-07-06T11:21:58.050Z,98688.00
2018-07-06T11:22:58.041Z,95040.00
2018-07-06T11:23:58.033Z,97056.00
2018-07-06T11:24:58.023Z,97504.00
2018-07-06T11:25:58.017Z,100160.00
2018-07-06T11:26:58.006Z,97312.00
2018-07-06T11:27:57.997Z,102304.00
2018-07-06T11:28:57.992Z,102464.00
2018-07-06T11:29:57.979Z,104096.00
2018-07-06T11:30:57.973Z,104288.00
2018-07-06T11:31:57.972Z,18656.00
2018-07-06T11:32:57.950Z,19200.00
2018-07-06T11:33:57.952Z,23808.00
2018-07-06T11:34:57.926Z,33216.00
2018-07-06T11:35:57.919Z,114304.00
2018-07-06T11:36:57.909Z,105568.00
2018-07-06T11:37:57.973Z,40160.00
2018-07-06T11:38:57.913Z,31808.00
2018-07-06T11:39:57.882Z,97440.00
2018-07-06T11:40:57.876Z,105984.00
2018-07-06T11:41:57.860Z,104640.00
2018-07-06T11:42:57.854Z,105472.00
2018-07-06T11:43:57.878Z,78816.00
2018-07-06T11:44:57.959Z,21568.00
2018-07-06T11:45:57.828Z,22592.00
2018-07-06T11:46:57.819Z,102688.00
2018-07-06T11:47:57.808Z,103712.00
2018-07-06T11:48:57.796Z,108832.00
2018-07-06T11:49:57.796Z,57344.00
2018-07-06T11:50:57.793Z,98208.00
2018-07-06T11:51:57.773Z,17280.00
2018-07-06T11:52:57.766Z,19808.00
2018-07-06T11:53:57.751Z,38112.00
2018-07-06T11:54:57.750Z,39008.00
2018-07-06T11:55:57.739Z,91232.00
2018-07-06T11:56:57.727Z,104128.00
2018-07-06T11:57:57.724Z,108288.00
2018-07-06T11:58:57.717Z,25056.00
2018-07-06T11:59:57.728Z,20544.00
2018-07-06T12:00:57.689Z,24032.00
2018-07-06T12:01:57.688Z,38144.00
2018-07-06T12:02:57.676Z,35168.00
2018-07-06T12:03:57.694Z,26240.00
2018-07-06T12:04:57.677Z,25728.00
2018-07-06T12:05:57.642Z,26880.00
2018-07-06T12:06:57.639Z,27968.00
2018-07-06T12:07:57.653Z,30304.00
2018-07-06T12:08:57.626Z,34496.00
2018-07-06T12:09:57.614Z,15916.00
2018-07-06T12:10:57.600Z,19104.00
2018-07-06T12:11:57.589Z,28128.00
2018-07-06T12:12:57.580Z,99552.00
2018-07-06T12:13:57.565Z,114784.00